Time;durP1;ratioP1;P1;durP2;ratioP2;P2;SDS_P1;SDS_P2;PMS_P1;PMS_P2;Temp;Humidity;BMP_temperature;BMP_pressure;BME280_temperature;BME280_humidity;BME280_pressure;Samples;Min_cycle;Max_cycle;Signal;HPM_P1;HPM_P2
2021/09/26 16:17:45;;;;;;;6.10;4.07;;;;;;;-138.14;100.00;63448.66;5137424;27;20550;-74
2021/09/26 16:20:12;;;;;;;4.88;3.70;;;;;;;-138.14;100.00;63448.66;5114752;28;20180;-76
2021/09/26 16:22:41;;;;;;;5.10;3.70;;;;;;;-138.14;100.00;63448.66;5098657;28;20188;-76
2021/09/26 16:25:07;;;;;;;5.25;3.75;;;;;;;-138.14;100.00;63448.66;5128430;27;20268;-76
2021/09/26 16:27:33;;;;;;;4.22;3.63;;;;;;;23.91;100.00;100794.19;5082555;27;20197;-78
2021/09/26 16:29:59;;;;;;;3.65;3.35;;;;;;;23.97;100.00;100787.19;5111539;28;20620;-78
2021/09/26 16:32:25;;;;;;;3.72;3.38;;;;;;;24.17;100.00;100798.03;5069108;28;20199;-78
2021/09/26 16:34:51;;;;;;;4.43;3.60;;;;;;;24.10;100.00;100791.50;5089266;27;20192;-77
2021/09/26 16:37:16;;;;;;;4.28;3.88;;;;;;;23.95;100.00;100789.53;5117354;28;20213;-74
2021/09/26 16:39:46;;;;;;;5.35;3.80;;;;;;;23.97;100.00;100788.03;5129779;28;20257;-76
2021/09/26 16:42:12;;;;;;;4.63;3.65;;;;;;;23.87;100.00;100796.06;5111342;27;20181;-77
2021/09/26 16:44:40;;;;;;;4.15;3.55;;;;;;;23.78;100.00;100792.66;5104559;28;20166;-78
2021/09/26 16:47:06;;;;;;;6.63;4.38;;;;;;;23.74;100.00;100788.19;5119308;27;20184;-76
2021/09/26 16:49:31;;;;;;;4.32;3.80;;;;;;;23.68;100.00;100793.19;5122691;27;20188;-78
2021/09/26 16:51:57;;;;;;;4.43;4.03;;;;;;;23.60;100.00;100788.56;5095059;28;20181;-79
2021/09/26 16:54:23;;;;;;;4.47;4.07;;;;;;;23.41;100.00;100795.13;5077723;28;20181;-76
2021/09/26 16:56:48;;;;;;;4.57;4.18;;;;;;;23.11;100.00;100804.94;5113002;28;20231;-78
2021/09/26 16:59:14;;;;;;;4.65;4.10;;;;;;;23.05;100.00;100803.56;5080782;28;20192;-76
2021/09/26 17:01:40;;;;;;;4.80;4.30;;;;;;;22.96;100.00;100791.00;5066496;28;20200;-76
2021/09/26 17:04:08;;;;;;;4.72;4.28;;;;;;;22.79;100.00;100797.59;5127891;28;20178;-77
2021/09/26 17:06:36;;;;;;;5.53;4.40;;;;;;;22.72;100.00;100798.53;5097355;28;20221;-76
2021/09/26 17:09:06;;;;;;;4.55;4.15;;;;;;;22.52;100.00;100800.28;5110387;28;20204;-76
2021/09/26 17:11:34;;;;;;;4.93;4.43;;;;;;;22.19;100.00;100801.56;5092783;28;20197;-77
2021/09/26 17:14:00;;;;;;;5.43;4.95;;;;;;;22.07;100.00;100809.81;5109697;28;20185;-78
2021/09/26 17:16:25;;;;;;;4.75;4.35;;;;;;;22.15;100.00;100805.34;5086813;27;20211;-77
2021/09/26 17:18:54;;;;;;;5.93;4.43;;;;;;;21.90;100.00;100809.19;5093202;28;20205;-77
2021/09/26 17:21:20;;;;;;;5.70;5.10;;;;;;;21.64;100.00;100810.66;5081961;28;20204;-76
2021/09/26 17:23:47;;;;;;;5.38;4.88;;;;;;;21.77;100.00;100809.53;5113828;28;20222;-76
2021/09/26 17:26:13;;;;;;;5.18;4.50;;;;;;;21.64;100.00;100813.41;5105069;27;20183;-77
2021/09/26 17:28:42;;;;;;;4.90;4.40;;;;;;;21.55;100.00;100812.69;5063233;28;20232;-75
2021/09/26 17:31:11;;;;;;;5.38;4.50;;;;;;;21.38;100.00;100815.59;5050972;27;20173;-77
2021/09/26 17:33:36;;;;;;;7.47;5.45;;;;;;;21.20;100.00;100805.03;5069738;28;20204;-77
2021/09/26 17:36:06;;;;;;;6.03;4.97;;;;;;;21.36;100.00;100806.81;5079279;28;20209;-75
2021/09/26 17:38:38;;;;;;;6.85;5.10;;;;;;;21.13;100.00;100815.81;5047676;28;20350;-77
2021/09/26 17:41:05;;;;;;;5.78;5.18;;;;;;;20.96;100.00;100821.47;5097115;28;20565;-76
2021/09/26 17:43:31;;;;;;;5.93;5.20;;;;;;;20.96;100.00;100831.72;5116516;28;20248;-77
2021/09/26 17:45:59;;;;;;;6.20;4.88;;;;;;;20.90;100.00;100838.59;5086328;28;20586;-80
2021/09/26 17:48:30;;;;;;;6.00;5.40;;;;;;;20.77;100.00;100834.13;5097317;28;20637;-78
2021/09/26 17:50:58;;;;;;;5.75;5.25;;;;;;;20.58;100.00;100832.91;5077603;28;20801;-79
2021/09/26 17:53:26;;;;;;;6.50;5.90;;;;;;;20.69;100.00;100839.69;5068770;28;20213;-79
2021/09/26 17:55:54;;;;;;;7.07;5.80;;;;;;;20.77;100.00;100828.59;5102946;28;20205;-77
2021/09/26 17:58:19;;;;;;;6.13;5.53;;;;;;;20.70;100.00;100831.09;5087506;28;20206;-80
2021/09/26 18:00:52;;;;;;;7.00;5.90;;;;;;;20.72;100.00;100830.75;5102439;28;20201;-79
2021/09/26 18:03:19;;;;;;;6.57;5.90;;;;;;;20.72;100.00;100831.56;5063421;28;20234;-76
2021/09/26 18:05:45;;;;;;;6.55;5.90;;;;;;;20.66;100.00;100827.38;5093994;28;20601;-79
2021/09/26 18:08:11;;;;;;;6.50;5.82;;;;;;;20.59;100.00;100832.59;5068288;28;20225;-77
2021/09/26 18:10:43;;;;;;;6.55;5.95;;;;;;;20.57;100.00;100834.06;5083088;28;20253;-76
2021/09/26 18:13:11;;;;;;;6.82;6.22;;;;;;;20.54;100.00;100835.53;5095013;28;20178;-77
2021/09/26 18:15:40;;;;;;;6.68;6.07;;;;;;;20.55;100.00;100839.13;5076865;27;20641;-76
2021/09/26 18:18:08;;;;;;;7.25;6.53;;;;;;;20.43;100.00;100839.81;5065424;28;20237;-78
2021/09/26 18:20:37;;;;;;;7.47;6.63;;;;;;;20.29;100.00;100845.88;5098799;28;20185;-78
2021/09/26 18:23:02;;;;;;;6.70;6.20;;;;;;;20.21;100.00;100846.75;5085387;28;20308;-78
2021/09/26 18:25:29;;;;;;;6.32;5.72;;;;;;;20.14;100.00;100840.91;5103384;28;20193;-78
2021/09/26 18:27:55;;;;;;;6.78;6.15;;;;;;;20.22;100.00;100837.34;5086501;28;20269;-78
2021/09/26 18:30:21;;;;;;;6.75;6.18;;;;;;;20.23;100.00;100849.97;5034507;28;20791;-77
2021/09/26 18:32:47;;;;;;;7.10;6.40;;;;;;;20.23;100.00;100852.72;5015426;28;20225;-78
2021/09/26 18:35:16;;;;;;;7.25;6.38;;;;;;;20.06;100.00;100859.13;4940448;28;20231;-78
2021/09/26 18:37:41;;;;;;;6.03;5.53;;;;;;;19.94;100.00;100849.91;5000018;28;20238;-77
2021/09/26 18:40:10;;;;;;;6.72;5.88;;;;;;;20.07;100.00;100858.00;5033890;28;20184;-77
2021/09/26 18:42:40;;;;;;;6.65;5.95;;;;;;;20.15;100.00;100859.09;5019195;28;20203;-78
2021/09/26 18:45:13;;;;;;;6.75;6.10;;;;;;;20.18;100.00;100852.91;5020071;28;20187;-77
2021/09/26 18:47:41;;;;;;;7.32;6.35;;;;;;;20.18;100.00;100855.66;5011508;28;20757;-77
2021/09/26 18:50:07;;;;;;;6.97;6.30;;;;;;;20.16;100.00;100855.19;5052298;28;20184;-77
2021/09/26 18:52:33;;;;;;;8.18;6.38;;;;;;;20.20;100.00;100856.97;5032818;28;20278;-78
2021/09/26 18:54:58;;;;;;;6.78;6.18;;;;;;;20.15;100.00;100859.91;5014459;28;20233;-77
2021/09/26 18:57:27;;;;;;;7.57;6.32;;;;;;;20.10;100.00;100859.28;5037868;28;20242;-77
2021/09/26 18:59:55;;;;;;;7.20;6.60;;;;;;;19.96;100.00;100866.13;5054830;28;20179;-77
2021/09/26 19:02:21;;;;;;;7.55;6.57;;;;;;;19.98;100.00;100869.38;5036766;28;20193;-78
2021/09/26 19:04:46;;;;;;;8.18;6.90;;;;;;;19.92;100.00;100870.69;5017972;28;20187;-78
2021/09/26 19:07:15;;;;;;;7.25;6.53;;;;;;;19.85;100.00;100860.16;5034351;28;20563;-78
2021/09/26 19:09:40;;;;;;;7.30;6.60;;;;;;;19.98;100.00;100861.91;5003652;28;20207;-77
2021/09/26 19:12:08;;;;;;;6.90;6.20;;;;;;;20.01;100.00;100874.22;5018754;28;21036;-77
2021/09/26 19:14:39;;;;;;;8.15;6.43;;;;;;;20.03;100.00;100878.28;5053358;28;20656;-77
2021/09/26 19:17:08;;;;;;;7.75;7.03;;;;;;;20.04;100.00;100871.63;5015385;28;20972;-76
2021/09/26 19:19:38;;;;;;;8.05;6.63;;;;;;;20.05;100.00;100881.50;5020749;28;20191;-76
2021/09/26 19:22:04;;;;;;;6.65;5.95;;;;;;;20.09;100.00;100879.72;5030088;28;20228;-76
2021/09/26 19:24:29;;;;;;;8.00;7.18;;;;;;;20.00;100.00;100867.91;5019750;28;20184;-77
2021/09/26 19:26:55;;;;;;;8.52;6.40;;;;;;;20.07;100.00;100882.81;5000290;28;20614;-75
2021/09/26 19:29:20;;;;;;;7.53;6.82;;;;;;;20.13;100.00;100888.97;5001039;28;20226;-76
2021/09/26 19:31:49;;;;;;;7.82;7.03;;;;;;;20.11;100.00;100874.69;5065366;28;20300;-77
2021/09/26 19:34:14;;;;;;;8.43;6.68;;;;;;;20.11;100.00;100880.22;5004153;28;20198;-74
2021/09/26 19:36:40;;;;;;;7.38;6.78;;;;;;;20.12;100.00;100870.78;5017005;28;20227;-76
2021/09/26 19:39:10;;;;;;;8.55;7.22;;;;;;;20.05;100.00;100870.47;5017195;28;20207;-76
2021/09/26 19:41:38;;;;;;;7.82;6.97;;;;;;;20.06;100.00;100877.63;5026341;28;20223;-77
2021/09/26 19:44:05;;;;;;;7.63;6.78;;;;;;;20.07;100.00;100876.47;5052505;28;20202;-76
2021/09/26 19:46:35;;;;;;;7.47;6.78;;;;;;;20.04;100.00;100874.38;5026559;28;20212;-76
2021/09/26 19:49:00;;;;;;;7.25;6.55;;;;;;;19.96;100.00;100874.41;5010424;28;20199;-76
2021/09/26 19:51:26;;;;;;;7.50;6.57;;;;;;;19.97;100.00;100870.53;5040302;28;20215;-76
2021/09/26 19:53:52;;;;;;;7.03;6.32;;;;;;;19.95;100.00;100876.34;5029250;28;20199;-76
2021/09/26 19:56:20;;;;;;;7.47;6.78;;;;;;;19.92;100.00;100874.25;5035563;28;20219;-76
2021/09/26 19:58:53;;;;;;;7.47;6.78;;;;;;;19.87;100.00;100877.19;5037223;28;20218;-77
2021/09/26 20:01:22;;;;;;;7.68;6.68;;;;;;;19.96;100.00;100872.44;5050835;28;20223;-76
2021/09/26 20:03:48;;;;;;;7.53;6.82;;;;;;;20.08;100.00;100870.63;5050978;28;20901;-75
2021/09/26 20:06:18;;;;;;;7.70;6.85;;;;;;;20.12;100.00;100873.53;5037383;28;20210;-75
2021/09/26 20:08:44;;;;;;;7.40;6.70;;;;;;;19.93;100.00;100875.88;5035031;28;20709;-75
2021/09/26 20:11:15;;;;;;;9.63;6.43;;;;;;;19.89;100.00;100876.84;5062733;28;20222;-75
2021/09/26 20:13:41;;;;;;;7.50;6.80;;;;;;;19.91;100.00;100875.41;5068602;28;20213;-75
2021/09/26 20:16:09;;;;;;;7.75;6.95;;;;;;;19.96;100.00;100886.22;5053432;28;20771;-76
2021/09/26 20:18:39;;;;;;;8.52;6.68;;;;;;;19.80;100.00;100885.13;5036763;28;20209;-77
2021/09/26 20:21:06;;;;;;;8.05;7.10;;;;;;;19.84;100.00;100879.78;5049867;28;20226;-77
2021/09/26 20:23:32;;;;;;;7.53;6.85;;;;;;;19.62;100.00;100887.44;5036773;28;20278;-78
2021/09/26 20:25:58;;;;;;;11.45;8.60;;;;;;;19.68;100.00;100882.19;5028753;28;20214;-77
2021/09/26 20:28:26;;;;;;;10.15;7.72;;;;;;;19.75;100.00;100887.22;5007133;28;20210;-78
2021/09/26 20:30:52;;;;;;;8.57;7.72;;;;;;;19.68;100.00;100873.94;5050914;28;20227;-77
2021/09/26 20:33:21;;;;;;;9.20;8.27;;;;;;;19.64;100.00;100874.13;5053216;28;20202;-77
2021/09/26 20:35:51;;;;;;;10.75;9.10;;;;;;;19.55;100.00;100881.59;5026556;28;20226;-77
2021/09/26 20:38:19;;;;;;;9.93;8.90;;;;;;;19.47;100.00;100874.16;5030299;28;20241;-77
2021/09/26 20:40:45;;;;;;;10.40;9.40;;;;;;;19.40;100.00;100874.63;5042796;28;20242;-77
2021/09/26 20:43:14;;;;;;;12.02;9.50;;;;;;;19.12;100.00;100886.28;5019833;28;20191;-77
2021/09/26 20:45:39;;;;;;;10.30;9.40;;;;;;;19.10;100.00;100885.81;5035643;28;20605;-77
2021/09/26 20:48:10;;;;;;;11.20;9.98;;;;;;;19.18;100.00;100885.00;5036306;28;20191;-77
2021/09/26 20:50:38;;;;;;;12.38;10.25;;;;;;;19.32;100.00;100888.38;5043640;28;20302;-77
2021/09/26 20:53:06;;;;;;;13.35;10.20;;;;;;;19.30;100.00;100882.38;5060529;28;20622;-77
2021/09/26 20:55:34;;;;;;;12.10;10.93;;;;;;;19.28;100.00;100881.91;5032849;28;20249;-77
2021/09/26 20:58:02;;;;;;;11.95;10.85;;;;;;;19.38;100.00;100889.88;5038497;28;20207;-76
2021/09/26 21:00:27;;;;;;;12.38;10.27;;;;;;;19.44;100.00;100891.31;5042201;28;20191;-77
2021/09/26 21:02:53;;;;;;;12.23;10.35;;;;;;;19.38;100.00;100889.88;5041702;28;20187;-78
2021/09/26 21:05:23;;;;;;;12.73;11.43;;;;;;;19.50;100.00;100901.84;5058269;28;20167;-78
2021/09/26 21:07:51;;;;;;;11.52;10.40;;;;;;;19.41;100.00;100902.97;5044044;28;20286;-78
2021/09/26 21:10:20;;;;;;;12.23;10.93;;;;;;;19.39;100.00;100906.06;5029639;28;20528;-79
2021/09/26 21:12:51;;;;;;;13.55;11.25;;;;;;;19.46;100.00;100897.31;5045819;28;20179;-79
2021/09/26 21:15:18;;;;;;;13.48;10.13;;;;;;;19.37;100.00;100907.53;5200463;23;20340;-78
2021/09/26 21:17:47;;;;;;;13.98;10.68;;;;;;;19.23;100.00;100912.38;5001409;28;20217;-80
2021/09/26 21:20:26;;;;;;;15.80;11.95;;;;;;;19.29;100.00;100911.09;5001360;28;20593;-78
2021/09/26 21:22:52;;;;;;;14.57;12.05;;;;;;;19.31;100.00;100909.63;5003612;28;20197;-79
2021/09/26 21:25:18;;;;;;;12.13;10.85;;;;;;;19.40;100.00;100920.66;5018094;28;20211;-78
2021/09/26 21:27:48;;;;;;;12.23;11.05;;;;;;;19.29;100.00;100933.13;5001240;28;20686;-78
2021/09/26 21:30:15;;;;;;;14.50;12.13;;;;;;;19.31;100.00;100941.88;5001820;28;20650;-79
2021/09/26 21:32:40;;;;;;;13.70;12.32;;;;;;;19.27;100.00;100949.19;4985556;28;20704;-79
2021/09/26 21:35:07;;;;;;;15.85;13.55;;;;;;;19.32;100.00;100946.25;4984606;28;20189;-79
2021/09/26 21:37:34;;;;;;;15.38;12.82;;;;;;;19.35;100.00;100937.34;4997983;28;20225;-79
2021/09/26 21:40:00;;;;;;;14.77;12.85;;;;;;;19.22;100.00;100943.81;4982036;28;20216;-79
2021/09/26 21:42:28;;;;;;;15.35;13.70;;;;;;;19.27;100.00;100948.34;4968006;28;20225;-79
2021/09/26 21:44:53;;;;;;;21.00;14.48;;;;;;;19.42;100.00;100940.44;5014661;28;20189;-79
2021/09/26 21:47:19;;;;;;;20.02;14.10;;;;;;;19.48;100.00;100936.38;5016612;28;20227;-78
2021/09/26 21:49:44;;;;;;;15.90;14.15;;;;;;;19.51;100.00;100921.97;4996742;28;20194;-79
2021/09/26 21:52:10;;;;;;;22.48;15.50;;;;;;;19.44;100.00;100927.16;5003655;28;20213;-79
2021/09/26 21:54:40;;;;;;;22.35;15.45;;;;;;;19.42;100.00;100930.22;4986112;28;20169;-79
2021/09/26 21:57:07;;;;;;;23.98;16.52;;;;;;;19.36;100.00;100922.44;5001616;28;20716;-78
2021/09/26 21:59:37;;;;;;;21.40;16.75;;;;;;;19.52;100.00;100921.63;4986639;28;20189;-78
2021/09/26 22:02:03;;;;;;;23.23;16.58;;;;;;;19.55;100.00;100922.94;4998639;28;20917;-79
2021/09/26 22:04:31;;;;;;;20.48;17.13;;;;;;;19.53;100.00;100922.44;4982636;28;20276;-79
2021/09/26 22:06:56;;;;;;;20.50;17.25;;;;;;;19.60;100.00;100917.25;5026515;28;20224;-79
2021/09/26 22:09:22;;;;;;;23.92;18.52;;;;;;;19.60;100.00;100911.75;5002056;28;20185;-79
2021/09/26 22:11:48;;;;;;;24.90;19.13;;;;;;;19.56;100.00;100916.25;4987195;28;20230;-78
2021/09/26 22:14:18;;;;;;;29.35;19.95;;;;;;;19.56;100.00;100908.00;4997431;28;20181;-77
2021/09/26 22:16:43;;;;;;;23.95;19.63;;;;;;;19.53;100.00;100916.94;5005256;28;20274;-78
2021/09/26 22:19:09;;;;;;;28.75;20.73;;;;;;;19.52;100.00;100904.28;4966598;28;20220;-78
2021/09/26 22:21:37;;;;;;;24.55;19.77;;;;;;;19.53;100.00;100908.66;4999689;28;20213;-78
2021/09/26 22:24:09;;;;;;;26.15;19.17;;;;;;;19.49;100.00;100900.22;4984215;28;20279;-77
2021/09/26 22:26:35;;;;;;;21.75;19.48;;;;;;;19.52;100.00;100896.00;4978381;28;20226;-77
2021/09/26 22:29:03;;;;;;;26.25;21.92;;;;;;;19.43;100.00;100892.44;4980731;28;20209;-78
2021/09/26 22:31:36;;;;;;;28.92;22.10;;;;;;;19.32;100.00;100889.22;4984193;28;20223;-77
2021/09/26 22:34:07;;;;;;;33.58;24.83;;;;;;;19.35;100.00;100885.78;5001305;28;20181;-77
2021/09/26 22:36:36;;;;;;;29.67;23.38;;;;;;;19.34;100.00;100892.47;4999348;28;20247;-79
2021/09/26 22:39:02;;;;;;;29.25;24.95;;;;;;;19.37;100.00;100885.47;5001021;28;20633;-78
2021/09/26 22:41:33;;;;;;;34.83;25.88;;;;;;;19.37;100.00;100875.25;4984066;28;20220;-80
2021/09/26 22:43:58;;;;;;;29.38;24.45;;;;;;;19.34;100.00;100870.41;4969464;28;20195;-76
2021/09/26 22:46:28;;;;;;;35.92;25.42;;;;;;;19.32;100.00;100871.84;4984803;28;20276;-76
2021/09/26 22:48:56;;;;;;;31.90;23.95;;;;;;;19.29;100.00;100872.50;4984515;28;20212;-77
2021/09/26 22:51:22;;;;;;;29.67;23.15;;;;;;;19.30;100.00;100879.63;4984346;28;20231;-78
2021/09/26 22:53:52;;;;;;;35.28;24.35;;;;;;;19.42;100.00;100875.09;5017125;28;20185;-79
2021/09/26 22:56:22;;;;;;;31.02;24.92;;;;;;;19.49;100.00;100866.34;4984330;28;20225;-80
2021/09/26 22:58:49;;;;;;;31.90;24.40;;;;;;;19.51;100.00;100870.41;5017163;28;20205;-78
2021/09/26 23:01:20;;;;;;;31.20;24.52;;;;;;;19.55;100.00;100865.84;5016812;28;20287;-77
2021/09/26 23:03:46;;;;;;;30.23;24.23;;;;;;;19.52;100.00;100866.50;5000615;28;20181;-78
2021/09/26 23:06:12;;;;;;;37.08;25.60;;;;;;;19.54;100.00;100868.94;4983659;28;20221;-78
2021/09/26 23:08:38;;;;;;;43.13;27.48;;;;;;;19.50;100.00;100865.19;4980860;28;20205;-78
2021/09/26 23:11:06;;;;;;;30.45;25.33;;;;;;;19.45;100.00;100868.13;4984255;28;20280;-77
2021/09/26 23:13:31;;;;;;;31.42;24.50;;;;;;;19.40;100.00;100862.78;5016596;28;20193;-78
2021/09/26 23:15:57;;;;;;;29.45;23.63;;;;;;;19.33;100.00;100867.97;4982914;28;20296;-78
2021/09/26 23:18:26;;;;;;;27.00;22.02;;;;;;;19.27;100.00;100869.28;4980568;28;20209;-78
2021/09/26 23:20:53;;;;;;;31.35;23.13;;;;;;;19.39;100.00;100872.19;4979607;28;20238;-79
2021/09/26 23:23:22;;;;;;;31.73;22.58;;;;;;;19.34;100.00;100873.16;4991210;28;20181;-78
2021/09/26 23:25:48;;;;;;;32.63;23.20;;;;;;;19.15;100.00;100863.59;4982484;28;20216;-77
2021/09/26 23:28:14;;;;;;;30.83;22.65;;;;;;;19.18;100.00;100870.41;4999169;28;20690;-78
2021/09/26 23:30:43;;;;;;;23.38;20.65;;;;;;;19.32;100.00;100866.34;4999756;28;20228;-78
2021/09/26 23:33:09;;;;;;;22.10;19.42;;;;;;;19.22;100.00;100869.44;4999153;28;20189;-77
2021/09/26 23:35:34;;;;;;;23.27;20.48;;;;;;;19.28;100.00;100871.72;4998775;28;20272;-77
2021/09/26 23:38:00;;;;;;;21.00;18.77;;;;;;;19.37;100.00;100868.94;4999033;28;20215;-78
2021/09/26 23:40:29;;;;;;;23.10;20.25;;;;;;;19.40;100.00;100871.06;4998470;28;20559;-78
2021/09/26 23:43:00;;;;;;;22.98;20.52;;;;;;;19.61;100.00;100877.53;5015787;28;20181;-78
2021/09/26 23:45:27;;;;;;;26.15;20.50;;;;;;;19.52;100.00;100873.97;4983879;28;20226;-78
2021/09/26 23:47:55;;;;;;;20.88;17.70;;;;;;;19.31;100.00;100879.31;4983170;28;20192;-78
2021/09/26 23:50:22;;;;;;;24.73;19.77;;;;;;;19.20;100.00;100881.91;4999749;28;20224;-77
2021/09/26 23:52:47;;;;;;;20.30;18.08;;;;;;;19.17;100.00;100880.59;4981889;28;20273;-77
2021/09/26 23:55:16;;;;;;;20.83;18.75;;;;;;;19.30;100.00;100876.88;4999102;28;20546;-76
2021/09/26 23:57:42;;;;;;;24.88;20.25;;;;;;;19.43;100.00;100882.25;4998951;28;20220;-76
